createdAt,value
2018-09-24T00:00:40.036Z,98800.28
2018-09-24T00:03:11.998Z,98802.94
2018-09-24T00:05:43.716Z,98802.44
2018-09-24T00:08:15.642Z,98798.95
2018-09-24T00:10:47.488Z,98800.92
2018-09-24T00:13:19.131Z,98806.92
2018-09-24T00:15:51.035Z,98809.25
2018-09-24T00:18:23.253Z,98808.25
2018-09-24T00:20:55.166Z,98814.56
2018-09-24T00:23:27.224Z,98812.25
2018-09-24T00:25:59.050Z,98814.07
2018-09-24T00:28:31.141Z,98815.06
2018-09-24T00:31:02.930Z,98814.56
2018-09-24T00:33:34.786Z,98816.20
2018-09-24T00:36:06.765Z,98819.70
2018-09-24T00:38:39.296Z,98824.86
2018-09-24T00:41:11.369Z,98822.70
2018-09-24T00:43:43.426Z,98824.72
2018-09-24T00:46:15.354Z,98821.22
2018-09-24T00:48:46.913Z,98823.39
2018-09-24T00:51:18.612Z,98833.34
2018-09-24T00:53:50.345Z,98831.36
2018-09-24T00:56:22.061Z,98830.19
2018-09-24T00:58:54.228Z,98836.00
2018-09-24T01:01:26.056Z,98830.53
2018-09-24T01:03:57.936Z,98836.16
2018-09-24T01:06:29.810Z,98843.15
2018-09-24T01:09:01.912Z,98847.97
2018-09-24T01:11:33.971Z,98846.80
2018-09-24T01:14:05.795Z,98845.96
2018-09-24T01:16:37.610Z,98851.63
2018-09-24T01:19:09.604Z,98849.80
2018-09-24T01:21:41.402Z,98854.78
2018-09-24T01:24:13.082Z,98852.45
2018-09-24T01:26:44.662Z,98852.61
2018-09-24T01:29:16.059Z,98859.39
2018-09-24T01:31:47.521Z,98864.39
2018-09-24T01:34:19.224Z,98867.39
2018-09-24T01:36:51.100Z,98867.73
2018-09-24T01:39:23.948Z,98875.72
2018-09-24T01:41:55.570Z,98877.54
2018-09-24T01:44:27.296Z,98887.34
2018-09-24T01:46:59.119Z,98890.98
2018-09-24T01:49:30.934Z,98890.30
2018-09-24T01:52:02.919Z,98886.47
2018-09-24T01:54:34.953Z,98897.63
2018-09-24T01:57:10.110Z,98899.45
2018-09-24T01:59:42.344Z,98899.95
2018-09-24T02:02:14.106Z,98907.09
2018-09-24T02:04:46.038Z,98900.45
2018-09-24T02:07:17.976Z,98901.44
2018-09-24T02:09:49.966Z,98901.59
2018-09-24T02:12:22.020Z,98900.60
2018-09-24T02:14:53.872Z,98898.09
2018-09-24T02:17:25.589Z,98893.61
2018-09-24T02:19:56.989Z,98899.08
2018-09-24T02:22:30.129Z,98906.91
2018-09-24T02:25:01.693Z,98899.92
2018-09-24T02:27:32.997Z,98903.56
2018-09-24T02:30:05.103Z,98903.91
2018-09-24T02:32:36.949Z,98905.73
2018-09-24T02:35:08.869Z,98902.23
2018-09-24T02:37:40.387Z,98897.10
2018-09-24T02:40:22.792Z,98900.59
2018-09-24T02:42:54.986Z,98906.22
2018-09-24T02:45:26.914Z,98901.92
2018-09-24T02:47:58.688Z,98899.92
2018-09-24T02:50:40.581Z,98900.59
2018-09-24T02:53:12.439Z,98888.29
2018-09-24T02:55:44.301Z,98888.29
2018-09-24T02:58:21.386Z,98888.45
2018-09-24T03:00:53.319Z,98882.63
2018-09-24T03:03:25.201Z,98888.94
2018-09-24T03:05:56.909Z,98891.45
2018-09-24T03:08:28.672Z,98883.97
2018-09-24T03:11:06.515Z,98892.62
2018-09-24T03:13:38.633Z,98893.12
2018-09-24T03:16:10.395Z,98894.30
2018-09-24T03:18:42.866Z,98897.94
2018-09-24T03:21:14.706Z,98886.63
2018-09-24T03:23:47.494Z,98887.61
2018-09-24T03:26:19.196Z,98886.24
2018-09-24T03:28:51.055Z,98892.36
2018-09-24T03:31:22.978Z,98899.16
2018-09-24T03:33:54.961Z,98901.47
2018-09-24T03:36:27.180Z,98902.30
2018-09-24T03:38:59.266Z,98900.14
2018-09-24T03:41:31.121Z,98901.47
2018-09-24T03:44:03.203Z,98906.62
2018-09-24T03:46:35.001Z,98905.75
2018-09-24T03:49:07.147Z,98914.72
2018-09-24T03:51:39.232Z,98918.06
2018-09-24T03:54:11.796Z,98919.54
2018-09-24T03:56:43.655Z,98925.53
2018-09-24T03:59:15.249Z,98921.89
2018-09-24T04:01:47.193Z,98927.16
2018-09-24T04:04:23.368Z,98926.82
2018-09-24T04:06:59.718Z,98932.13
2018-09-24T04:09:36.137Z,98928.98
2018-09-24T04:12:12.845Z,98933.31
2018-09-24T04:14:49.187Z,98935.63
2018-09-24T04:17:25.927Z,98934.15
2018-09-24T04:20:02.179Z,98936.31
2018-09-24T04:22:38.628Z,98932.82
2018-09-24T04:25:14.908Z,98932.97
2018-09-24T04:27:51.317Z,98932.13
2018-09-24T04:30:27.356Z,98927.31
2018-09-24T04:33:03.128Z,98930.64
2018-09-24T04:35:38.803Z,98934.59
2018-09-24T04:38:14.870Z,98950.52
2018-09-24T04:40:51.433Z,98959.35
2018-09-24T04:43:27.948Z,98950.74
2018-09-24T04:46:04.201Z,98953.10
2018-09-24T04:48:40.622Z,98955.55
2018-09-24T04:51:16.938Z,98950.23
2018-09-24T04:53:53.519Z,98948.00
2018-09-24T04:56:30.198Z,98947.08
2018-09-24T04:59:06.867Z,98940.79
2018-09-24T05:01:43.417Z,98932.34
2018-09-24T05:04:21.189Z,98941.33
2018-09-24T05:06:57.639Z,98940.05
2018-09-24T05:09:33.884Z,98934.69
2018-09-24T05:12:10.389Z,98930.16
2018-09-24T05:14:46.916Z,98936.45
2018-09-24T05:17:23.063Z,98926.95
2018-09-24T05:19:59.444Z,98930.24
2018-09-24T05:22:36.086Z,98921.98
2018-09-24T05:25:12.665Z,98923.02
2018-09-24T05:27:48.915Z,98922.67
2018-09-24T05:30:25.546Z,98920.02
2018-09-24T05:33:01.923Z,98924.91
2018-09-24T05:35:38.541Z,98929.53
2018-09-24T05:38:14.767Z,98926.39
2018-09-24T05:40:50.951Z,98919.41
2018-09-24T05:43:27.461Z,98924.06
2018-09-24T05:46:03.655Z,98923.66
2018-09-24T05:48:40.288Z,98924.20
2018-09-24T05:51:16.427Z,98915.89
2018-09-24T05:53:53.166Z,98916.26
2018-09-24T05:56:29.968Z,98914.77
2018-09-24T05:59:06.889Z,98908.55
2018-09-24T06:01:43.406Z,98904.22
2018-09-24T06:04:19.658Z,98903.89
2018-09-24T06:06:56.120Z,98896.27
2018-09-24T06:09:32.413Z,98903.25
2018-09-24T06:12:09.039Z,98900.92
2018-09-24T06:14:45.360Z,98890.13
2018-09-24T06:17:21.792Z,98894.23
2018-09-24T06:19:58.258Z,98891.44
2018-09-24T06:22:34.744Z,98887.58
2018-09-24T06:25:10.961Z,98885.58
2018-09-24T06:27:47.267Z,98884.23
2018-09-24T06:30:23.645Z,98879.08
2018-09-24T06:33:00.051Z,98880.89
2018-09-24T06:35:37.196Z,98874.59
2018-09-24T06:38:13.611Z,98867.81
2018-09-24T06:40:49.870Z,98863.98
2018-09-24T06:43:26.116Z,98872.56
2018-09-24T06:46:02.123Z,98862.78
2018-09-24T06:48:38.579Z,98863.25
2018-09-24T06:51:14.893Z,98859.59
2018-09-24T06:53:51.280Z,98858.38
2018-09-24T06:56:27.715Z,98861.23
2018-09-24T06:59:05.231Z,98856.27
2018-09-24T07:01:41.869Z,98845.66
2018-09-24T07:04:18.222Z,98853.14
2018-09-24T07:06:54.447Z,98849.66
2018-09-24T07:09:31.147Z,98841.01
2018-09-24T07:12:07.413Z,98838.04
2018-09-24T07:14:43.792Z,98839.39
2018-09-24T07:17:20.061Z,98840.00
2018-09-24T07:19:56.513Z,98831.70
2018-09-24T07:22:32.649Z,98834.35
2018-09-24T07:25:08.940Z,98837.84
2018-09-24T07:27:45.310Z,98834.70
2018-09-24T07:30:21.633Z,98836.31
2018-09-24T07:32:57.803Z,98839.37
2018-09-24T07:35:34.422Z,98843.66
2018-09-24T07:38:10.729Z,98839.08
2018-09-24T07:40:47.223Z,98849.05
2018-09-24T07:43:23.471Z,98848.82
2018-09-24T07:45:59.937Z,98846.19
2018-09-24T07:48:36.088Z,98849.48
2018-09-24T07:51:12.417Z,98852.19
2018-09-24T07:53:48.631Z,98840.53
2018-09-24T07:56:31.360Z,98843.19
2018-09-24T07:59:08.472Z,98843.05
2018-09-24T08:01:44.728Z,98840.88
2018-09-24T08:04:21.033Z,98835.58
2018-09-24T08:06:57.511Z,98831.25
2018-09-24T08:09:33.940Z,98834.94
2018-09-24T08:12:10.454Z,98828.59
2018-09-24T08:14:46.778Z,98817.98
2018-09-24T08:17:23.292Z,98814.05
2018-09-24T08:19:59.590Z,98809.67
2018-09-24T08:22:36.145Z,98806.58
2018-09-24T08:25:12.555Z,98810.77
2018-09-24T08:27:49.494Z,98808.11
2018-09-24T08:30:25.803Z,98806.02
2018-09-24T08:33:01.914Z,98805.70
2018-09-24T08:35:38.434Z,98803.48
2018-09-24T08:38:14.942Z,98802.36
2018-09-24T08:40:51.501Z,98800.84
2018-09-24T08:43:27.787Z,98796.22
2018-09-24T08:46:04.224Z,98803.70
2018-09-24T08:48:40.510Z,98800.21
2018-09-24T08:51:17.090Z,98795.03
2018-09-24T08:53:54.074Z,98793.22
2018-09-24T08:56:30.385Z,98789.94
2018-09-24T08:59:07.178Z,98783.30
2018-09-24T09:01:43.526Z,98777.36
2018-09-24T09:04:19.686Z,98777.00
2018-09-24T09:06:55.690Z,98770.52
2018-09-24T09:09:32.192Z,98768.41
2018-09-24T09:12:08.781Z,98765.42
2018-09-24T09:14:45.155Z,98765.13
2018-09-24T09:17:21.486Z,98761.14
2018-09-24T09:19:57.967Z,98753.87
2018-09-24T09:22:34.202Z,98749.39
2018-09-24T09:25:11.245Z,98743.89
2018-09-24T09:27:47.591Z,98745.22
2018-09-24T09:30:23.981Z,98746.20
2018-09-24T09:33:00.081Z,98742.56
2018-09-24T09:35:36.127Z,98740.70
2018-09-24T09:38:12.280Z,98748.17
2018-09-24T09:40:48.757Z,98748.45
2018-09-24T09:50:32.809Z,98732.02
2018-09-24T09:53:09.113Z,98733.84
2018-09-24T09:55:45.767Z,98728.25
2018-09-24T09:58:22.101Z,98730.69
2018-09-24T10:00:58.255Z,98729.72
2018-09-24T10:03:34.483Z,98733.56
2018-09-24T10:06:10.741Z,98730.76
2018-09-24T10:08:46.944Z,98728.80
2018-09-24T10:11:24.077Z,98718.56
2018-09-24T10:14:00.027Z,98715.91
2018-09-24T10:16:36.426Z,98724.22
2018-09-24T10:19:12.608Z,98722.27
2018-09-24T10:21:48.972Z,98720.98
2018-09-24T10:24:25.110Z,98715.81
2018-09-24T10:27:01.451Z,98708.70
2018-09-24T10:29:37.697Z,98712.83
2018-09-24T10:32:13.975Z,98712.54
2018-09-24T10:34:50.163Z,98707.58
2018-09-24T10:37:26.568Z,98712.09
2018-09-24T10:40:02.762Z,98713.91
2018-09-24T10:42:39.236Z,98711.75
2018-09-24T10:45:15.312Z,98711.11
2018-09-24T10:47:51.558Z,98719.08
2018-09-24T10:50:27.811Z,98709.44
2018-09-24T10:53:04.165Z,98713.13
2018-09-24T10:55:40.610Z,98708.46
2018-09-24T10:58:17.180Z,98710.81
2018-09-24T11:00:53.383Z,98710.47
2018-09-24T11:03:29.759Z,98706.87
2018-09-24T11:06:05.890Z,98699.59
2018-09-24T11:08:42.339Z,98696.63
2018-09-24T11:11:18.701Z,98693.52
2018-09-24T11:13:54.819Z,98703.64
2018-09-24T11:16:32.505Z,98699.28
2018-09-24T11:19:08.641Z,98699.78
2018-09-24T11:21:44.895Z,98706.08
2018-09-24T11:24:21.211Z,98706.57
2018-09-24T11:26:57.301Z,98713.21
2018-09-24T11:29:33.545Z,98716.85
2018-09-24T11:32:10.006Z,98717.91
2018-09-24T11:34:46.063Z,98717.84
2018-09-24T11:37:22.282Z,98725.80
2018-09-24T11:39:58.544Z,98711.84
2018-09-24T11:42:34.780Z,98716.47
2018-09-24T11:45:11.251Z,98717.75
2018-09-24T11:47:47.579Z,98715.78
2018-09-24T11:50:23.908Z,98724.08
2018-09-24T11:53:00.162Z,98715.44
2018-09-24T11:55:36.340Z,98727.38
2018-09-24T11:58:12.819Z,98724.05
2018-09-24T12:00:48.797Z,98725.32
2018-09-24T12:03:25.121Z,98736.47
2018-09-24T12:06:01.429Z,98735.64
2018-09-24T12:08:37.812Z,98729.35
2018-09-24T12:11:14.195Z,98734.66
2018-09-24T12:13:50.597Z,98731.02
2018-09-24T12:16:27.170Z,98722.07
2018-09-24T12:19:04.191Z,98728.06
2018-09-24T12:21:40.399Z,98722.91
2018-09-24T12:24:16.135Z,98736.86
2018-09-24T12:26:52.173Z,98726.73
2018-09-24T12:29:28.311Z,98726.39
2018-09-24T12:32:04.723Z,98725.52
2018-09-24T12:34:41.234Z,98724.69
2018-09-24T12:37:17.495Z,98726.39
2018-09-24T12:39:53.664Z,98734.02
2018-09-24T12:42:30.328Z,98741.03
2018-09-24T12:45:06.730Z,98750.41
2018-09-24T12:47:43.214Z,98756.55
2018-09-24T12:50:19.311Z,98766.23
2018-09-24T12:52:55.682Z,98760.78
2018-09-24T12:55:31.957Z,98767.08
2018-09-24T12:58:08.287Z,98758.90
2018-09-24T13:00:44.664Z,98766.92
2018-09-24T13:03:21.027Z,98773.06
2018-09-24T13:05:56.897Z,98768.39
2018-09-24T13:08:33.235Z,98758.67
2018-09-24T13:11:09.489Z,98753.72
2018-09-24T13:13:45.920Z,98753.30
2018-09-24T13:16:21.942Z,98759.59
2018-09-24T13:18:58.199Z,98767.77
2018-09-24T13:21:35.336Z,98770.95
2018-09-24T13:24:11.590Z,98771.64
2018-09-24T13:26:47.705Z,98777.31
2018-09-24T13:29:24.276Z,98775.67
2018-09-24T13:32:00.423Z,98786.59
2018-09-24T13:34:36.802Z,98800.21
2018-09-24T13:37:13.272Z,98806.50
2018-09-24T13:39:49.639Z,98795.58
2018-09-24T13:42:25.871Z,98802.87
2018-09-24T13:45:02.347Z,98806.36
2018-09-24T13:47:38.738Z,98819.33
2018-09-24T13:50:14.972Z,98820.95
2018-09-24T13:52:51.124Z,98823.75
2018-09-24T13:55:27.374Z,98826.11
2018-09-24T13:58:03.661Z,98823.17
2018-09-24T14:00:40.746Z,98826.45
2018-09-24T14:03:17.019Z,98834.77
2018-09-24T14:05:53.524Z,98837.09
2018-09-24T14:08:29.879Z,98824.51
2018-09-24T14:11:06.114Z,98832.47
2018-09-24T14:13:42.267Z,98839.45
2018-09-24T14:16:18.530Z,98846.45
2018-09-24T14:18:55.212Z,98846.30
2018-09-24T14:21:31.718Z,98846.16
2018-09-24T14:24:10.002Z,98852.64
2018-09-24T14:26:46.344Z,98857.95
2018-09-24T14:29:22.334Z,98857.28
2018-09-24T14:31:58.992Z,98863.43
2018-09-24T14:34:35.327Z,98862.10
2018-09-24T14:37:11.676Z,98870.76
2018-09-24T14:39:47.848Z,98872.58
2018-09-24T14:42:24.179Z,98876.06
2018-09-24T14:45:00.298Z,98885.70
2018-09-24T14:47:36.397Z,98882.06
2018-09-24T14:50:12.829Z,98887.38
2018-09-24T14:52:49.166Z,98880.73
2018-09-24T14:55:25.331Z,98882.38
2018-09-24T14:58:01.869Z,98884.54
2018-09-24T15:00:38.222Z,98874.09
2018-09-24T15:03:14.517Z,98872.28
2018-09-24T15:05:50.844Z,98875.73
2018-09-24T15:08:27.223Z,98876.08
2018-09-24T15:11:03.444Z,98884.05
2018-09-24T15:13:39.738Z,98882.72
2018-09-24T15:16:15.597Z,98886.22
2018-09-24T15:18:51.927Z,98896.34
2018-09-24T15:21:28.203Z,98910.95
2018-09-24T15:24:04.357Z,98922.90
2018-09-24T15:26:41.589Z,98924.91
2018-09-24T15:29:17.995Z,98921.91
2018-09-24T15:31:54.570Z,98934.55
2018-09-24T15:34:31.006Z,98936.17
2018-09-24T15:37:07.319Z,98936.81
2018-09-24T15:39:43.705Z,98939.98
2018-09-24T15:42:19.806Z,98943.80
2018-09-24T15:44:56.085Z,98944.14
2018-09-24T15:47:32.489Z,98952.45
2018-09-24T15:50:08.789Z,98954.47
2018-09-24T15:52:45.256Z,98951.81
2018-09-24T15:55:21.790Z,98949.16
2018-09-24T15:57:57.970Z,98945.52
2018-09-24T16:00:34.435Z,98952.50
2018-09-24T16:03:10.666Z,98955.16
2018-09-24T16:05:46.760Z,98955.16
2018-09-24T16:08:22.915Z,98959.45
2018-09-24T16:10:59.341Z,98956.30
2018-09-24T16:13:35.518Z,98955.47
2018-09-24T16:16:11.978Z,98958.81
2018-09-24T16:18:48.098Z,98959.16
2018-09-24T16:21:24.338Z,98964.47
2018-09-24T16:24:00.445Z,98964.13
2018-09-24T16:26:36.795Z,98966.78
2018-09-24T16:29:13.457Z,98963.78
2018-09-24T16:31:50.163Z,98968.11
2018-09-24T16:34:26.483Z,98962.95
2018-09-24T16:37:02.964Z,98972.44
2018-09-24T16:39:39.375Z,98975.24
2018-09-24T16:42:15.852Z,98969.59
2018-09-24T16:44:52.675Z,98969.78
2018-09-24T16:47:29.244Z,98971.45
2018-09-24T16:50:06.017Z,98966.49
2018-09-24T16:52:42.239Z,98967.33
2018-09-24T16:55:18.461Z,98966.84
2018-09-24T16:57:54.990Z,98973.79
2018-09-24T17:00:31.099Z,98966.49
2018-09-24T17:03:07.361Z,98962.33
2018-09-24T17:05:43.503Z,98962.51
2018-09-24T17:08:19.928Z,98964.67
2018-09-24T17:10:56.259Z,98958.18
2018-09-24T17:13:32.673Z,98960.83
2018-09-24T17:16:08.559Z,98957.84
2018-09-24T17:18:45.330Z,98964.81
2018-09-24T17:21:21.622Z,98968.80
2018-09-24T17:23:57.823Z,98974.46
2018-09-24T17:26:34.130Z,98975.78
2018-09-24T17:29:12.003Z,98970.48
2018-09-24T17:31:48.096Z,98978.09
2018-09-24T17:34:24.314Z,98968.80
2018-09-24T17:37:00.509Z,98966.15
2018-09-24T17:39:36.848Z,98958.03
2018-09-24T17:42:13.145Z,98957.20
2018-09-24T17:44:49.253Z,98949.37
2018-09-24T17:47:25.331Z,98951.20
2018-09-24T17:50:01.877Z,98952.87
2018-09-24T17:52:38.084Z,98954.89
2018-09-24T17:55:14.740Z,98956.02
2018-09-24T17:57:51.036Z,98946.80
2018-09-24T18:00:27.462Z,98946.99
2018-09-24T18:03:04.153Z,98943.84
2018-09-24T18:05:40.554Z,98947.70
2018-09-24T18:08:16.785Z,98948.54
2018-09-24T18:10:54.393Z,98947.84
2018-09-24T18:13:30.696Z,98945.20
2018-09-24T18:16:06.826Z,98941.06
2018-09-24T18:18:42.950Z,98942.25
2018-09-24T18:21:19.450Z,98941.27
2018-09-24T18:23:55.785Z,98946.58
2018-09-24T18:26:32.080Z,98937.77
2018-09-24T18:29:08.260Z,98934.77
2018-09-24T18:31:45.414Z,98939.59
2018-09-24T18:34:21.754Z,98940.92
2018-09-24T18:36:58.165Z,98938.27
2018-09-24T18:39:34.447Z,98942.59
2018-09-24T18:42:10.776Z,98935.61
2018-09-24T18:44:46.943Z,98938.75
2018-09-24T18:47:23.529Z,98939.59
2018-09-24T18:49:59.460Z,98930.93
2018-09-24T18:52:36.059Z,98931.28
2018-09-24T18:55:12.388Z,98916.33
2018-09-24T18:57:48.816Z,98917.66
2018-09-24T19:00:25.113Z,98920.31
2018-09-24T19:03:01.892Z,98914.66
2018-09-24T19:05:38.220Z,98913.67
2018-09-24T19:08:14.420Z,98915.14
2018-09-24T19:10:50.743Z,98912.49
2018-09-24T19:13:27.142Z,98913.67
2018-09-24T19:16:03.324Z,98915.34
2018-09-24T19:18:39.639Z,98912.19
2018-09-24T19:21:15.878Z,98905.21
2018-09-24T19:23:51.968Z,98912.19
2018-09-24T19:26:28.282Z,98906.69
2018-09-24T19:29:04.536Z,98900.39
2018-09-24T19:31:40.765Z,98897.39
2018-09-24T19:34:18.373Z,98892.08
2018-09-24T19:36:54.755Z,98894.39
2018-09-24T19:39:31.703Z,98894.39
2018-09-24T19:42:07.770Z,98899.70
2018-09-24T19:44:44.067Z,98899.39
2018-09-24T19:47:20.410Z,98896.39
2018-09-24T19:49:56.659Z,98895.90
2018-09-24T19:52:32.936Z,98898.06
2018-09-24T19:55:09.319Z,98898.38
2018-09-24T19:57:45.592Z,98896.55
2018-09-24T20:00:21.657Z,98896.21
2018-09-24T20:02:57.972Z,98903.69
2018-09-24T20:05:34.357Z,98897.54
2018-09-24T20:08:10.677Z,98898.87
2018-09-24T20:10:47.226Z,98898.06
2018-09-24T20:13:23.345Z,98893.55
2018-09-24T20:15:59.822Z,98879.13
2018-09-24T20:18:35.972Z,98879.97
2018-09-24T20:21:12.264Z,98875.79
2018-09-24T20:23:48.438Z,98871.11
2018-09-24T20:26:25.286Z,98872.30
2018-09-24T20:29:01.246Z,98878.44
2018-09-24T20:31:37.536Z,98880.75
2018-09-24T20:34:13.675Z,98878.09
2018-09-24T20:41:30.554Z,98869.94
2018-09-24T20:44:06.756Z,98867.28
2018-09-24T20:46:42.914Z,98861.48
2018-09-24T20:49:19.157Z,98866.45
2018-09-24T20:51:55.544Z,98863.79
2018-09-24T20:54:31.796Z,98868.12
2018-09-24T20:57:08.189Z,98861.48
2018-09-24T20:59:44.332Z,98865.95
2018-09-24T21:02:20.628Z,98858.17
2018-09-24T21:04:56.903Z,98857.48
2018-09-24T21:07:33.506Z,98853.50
2018-09-24T21:10:09.708Z,98852.17
2018-09-24T21:12:45.724Z,98856.16
2018-09-24T21:15:22.056Z,98860.63
2018-09-24T21:17:58.269Z,98861.47
2018-09-24T21:20:34.558Z,98862.45
2018-09-24T21:23:10.615Z,98858.47
2018-09-24T21:25:46.760Z,98855.47
2018-09-24T21:28:23.161Z,98853.64
2018-09-24T21:30:59.524Z,98860.63
2018-09-24T21:33:36.042Z,98857.97
2018-09-24T21:36:12.443Z,98859.45
2018-09-24T21:38:48.574Z,98855.13
2018-09-24T21:41:24.865Z,98854.14
2018-09-24T21:44:01.082Z,98868.25
2018-09-24T21:46:37.444Z,98853.80
2018-09-24T21:49:13.492Z,98857.77
2018-09-24T21:51:50.010Z,98852.47
2018-09-24T21:54:26.374Z,98851.31
2018-09-24T21:57:02.560Z,98854.61
2018-09-24T21:59:38.886Z,98854.12
2018-09-24T22:02:14.936Z,98856.92
2018-09-24T22:04:51.880Z,98858.74
2018-09-24T22:07:27.995Z,98850.78
2018-09-24T22:10:04.223Z,98852.11
2018-09-24T22:12:40.476Z,98841.48
2018-09-24T22:15:16.878Z,98841.14
2018-09-24T22:17:53.208Z,98841.14
2018-09-24T22:20:29.438Z,98842.81
2018-09-24T22:23:05.760Z,98842.81
2018-09-24T22:25:42.330Z,98836.17
2018-09-24T22:28:18.482Z,98832.20
2018-09-24T22:30:54.924Z,98830.18
2018-09-24T22:33:31.173Z,98837.30
2018-09-24T22:36:07.184Z,98843.80
2018-09-24T22:38:43.580Z,98845.45
2018-09-24T22:41:19.785Z,98850.76
2018-09-24T22:43:56.089Z,98847.77
2018-09-24T22:46:32.481Z,98849.38
2018-09-24T22:49:08.864Z,98852.09
2018-09-24T22:51:46.244Z,98847.08
2018-09-24T22:54:22.488Z,98854.05
2018-09-24T22:56:58.833Z,98853.71
2018-09-24T22:59:35.163Z,98854.69
2018-09-24T23:02:11.668Z,98856.51
2018-09-24T23:04:47.932Z,98855.67
2018-09-24T23:07:24.625Z,98858.33
2018-09-24T23:10:00.782Z,98852.19
2018-09-24T23:12:37.270Z,98856.16
2018-09-24T23:15:13.699Z,98859.00
2018-09-24T23:17:50.088Z,98868.29
2018-09-24T23:20:26.665Z,98877.58
2018-09-24T23:23:03.129Z,98872.91
2018-09-24T23:25:39.433Z,98869.91
2018-09-24T23:28:15.683Z,98860.27
2018-09-24T23:30:51.892Z,98870.05
2018-09-24T23:33:28.611Z,98869.56
2018-09-24T23:36:04.829Z,98874.38
2018-09-24T23:38:41.083Z,98875.34
2018-09-24T23:41:17.835Z,98876.84
2018-09-24T23:43:54.022Z,98875.51
2018-09-24T23:46:30.629Z,98875.51
2018-09-24T23:49:06.890Z,98878.66
2018-09-24T23:51:43.094Z,98878.48
2018-09-24T23:54:19.884Z,98882.81
2018-09-24T23:56:56.660Z,98881.83
2018-09-24T23:59:33.141Z,98887.80
